sensor_id;sensor_type;location;lat;lon;timestamp;pressure;altitude;pressure_sealevel;temperature;humidity
70370;BME280;57790;51.356;-2.906;2023-03-04T00:02:37;103300.84;;;8.09;100.00
70370;BME280;57790;51.356;-2.906;2023-03-04T00:05:38;103303.44;;;8.11;100.00
70370;BME280;57790;51.356;-2.906;2023-03-04T00:08:38;103303.44;;;8.11;100.00
70370;BME280;57790;51.356;-2.906;2023-03-04T00:11:39;103294.56;;;8.12;100.00
70370;BME280;57790;51.356;-2.906;2023-03-04T00:14:40;103297.34;;;8.09;100.00
70370;BME280;57790;51.356;-2.906;2023-03-04T00:17:40;103290.34;;;8.07;100.00
70370;BME280;57790;51.356;-2.906;2023-03-04T00:20:41;103292.06;;;8.09;100.00
70370;BME280;57790;51.356;-2.906;2023-03-04T00:23:41;103291.47;;;8.03;100.00
70370;BME280;57790;51.356;-2.906;2023-03-04T00:26:42;103289.69;;;8.04;100.00
70370;BME280;57790;51.356;-2.906;2023-03-04T00:29:43;103286.88;;;8.07;100.00
70370;BME280;57790;51.356;-2.906;2023-03-04T00:32:43;103291.47;;;8.03;100.00
70370;BME280;57790;51.356;-2.906;2023-03-04T00:35:44;103293.34;;;8.01;100.00
70370;BME280;57790;51.356;-2.906;2023-03-04T00:38:45;103291.66;;;8.00;100.00
70370;BME280;57790;51.356;-2.906;2023-03-04T00:41:45;103289.69;;;8.04;100.00
70370;BME280;57790;51.356;-2.906;2023-03-04T00:44:46;103287.22;;;8.01;100.00
70370;BME280;57790;51.356;-2.906;2023-03-04T00:47:46;103293.34;;;8.01;100.00
70370;BME280;57790;51.356;-2.906;2023-03-04T00:50:46;103290.53;;;8.04;100.00
70370;BME280;57790;51.356;-2.906;2023-03-04T00:53:48;103292.31;;;8.04;100.00
70370;BME280;57790;51.356;-2.906;2023-03-04T00:56:48;103287.22;;;8.01;100.00
70370;BME280;57790;51.356;-2.906;2023-03-04T00:59:49;103293.53;;;7.98;100.00
70370;BME280;57790;51.356;-2.906;2023-03-04T01:02:49;103299.75;;;7.97;100.00
70370;BME280;57790;51.356;-2.906;2023-03-04T01:05:49;103292.97;;;7.92;100.00
70370;BME280;57790;51.356;-2.906;2023-03-04T01:08:50;103291.19;;;7.92;100.00
70370;BME280;57790;51.356;-2.906;2023-03-04T01:11:50;103286.75;;;7.93;100.00
70370;BME280;57790;51.356;-2.906;2023-03-04T01:14:51;103289.41;;;7.93;100.00
70370;BME280;57790;51.356;-2.906;2023-03-04T01:17:51;103283.25;;;7.92;100.00
70370;BME280;57790;51.356;-2.906;2023-03-04T01:20:52;103290.34;;;7.92;100.00
70370;BME280;57790;51.356;-2.906;2023-03-04T01:23:52;103286.06;;;7.89;100.00
70370;BME280;57790;51.356;-2.906;2023-03-04T01:26:52;103292.97;;;7.92;100.00
70370;BME280;57790;51.356;-2.906;2023-03-04T01:29:54;103287.09;;;7.87;100.00
70370;BME280;57790;51.356;-2.906;2023-03-04T01:32:54;103285.31;;;7.87;100.00
70370;BME280;57790;51.356;-2.906;2023-03-04T01:35:55;103292.38;;;7.87;100.00
70370;BME280;57790;51.356;-2.906;2023-03-04T01:38:56;103295.09;;;7.85;100.00
70370;BME280;57790;51.356;-2.906;2023-03-04T01:41:57;103289.75;;;7.87;100.00
70370;BME280;57790;51.356;-2.906;2023-03-04T01:44:57;103287.19;;;7.85;100.00
70370;BME280;57790;51.356;-2.906;2023-03-04T01:47:57;103284.72;;;7.82;100.00
70370;BME280;57790;51.356;-2.906;2023-03-04T01:50:58;103289.91;;;7.84;100.00
70370;BME280;57790;51.356;-2.906;2023-03-04T01:54:02;103283.00;;;7.81;100.00
70370;BME280;57790;51.356;-2.906;2023-03-04T01:57:14;103275.09;;;7.81;100.00
70370;BME280;57790;51.356;-2.906;2023-03-04T02:00:27;103282.22;;;7.79;100.00
70370;BME280;57790;51.356;-2.906;2023-03-04T02:03:28;103284.84;;;7.79;100.00
70370;BME280;57790;51.356;-2.906;2023-03-04T02:06:29;103284.09;;;7.77;100.00
70370;BME280;57790;51.356;-2.906;2023-03-04T02:09:31;103276.16;;;7.77;100.00
70370;BME280;57790;51.356;-2.906;2023-03-04T02:12:32;103277.94;;;7.76;100.00
70370;BME280;57790;51.356;-2.906;2023-03-04T02:15:32;103284.25;;;7.74;100.00
70370;BME280;57790;51.356;-2.906;2023-03-04T02:18:33;103278.88;;;7.75;100.00
70370;BME280;57790;51.356;-2.906;2023-03-04T02:21:33;103276.34;;;7.74;100.00
70370;BME280;57790;51.356;-2.906;2023-03-04T02:24:48;103278.03;;;7.75;100.00
70370;BME280;57790;51.356;-2.906;2023-03-04T02:27:51;103264.06;;;7.73;100.00
70370;BME280;57790;51.356;-2.906;2023-03-04T02:30:51;103254.28;;;7.75;100.00
70370;BME280;57790;51.356;-2.906;2023-03-04T02:33:54;103255.97;;;7.76;100.00
70370;BME280;57790;51.356;-2.906;2023-03-04T02:36:55;103257.00;;;7.73;100.00
70370;BME280;57790;51.356;-2.906;2023-03-04T02:39:56;103251.63;;;7.75;100.00
70370;BME280;57790;51.356;-2.906;2023-03-04T02:42:58;103255.97;;;7.76;100.00
70370;BME280;57790;51.356;-2.906;2023-03-04T02:45:59;103249.84;;;7.75;100.00
70370;BME280;57790;51.356;-2.906;2023-03-04T02:49:00;103245.66;;;7.71;100.00
70370;BME280;57790;51.356;-2.906;2023-03-04T02:55:03;103249.34;;;7.69;100.00
70370;BME280;57790;51.356;-2.906;2023-03-04T02:58:03;103251.81;;;7.72;100.00
70370;BME280;57790;51.356;-2.906;2023-03-04T03:01:05;103241.25;;;7.72;100.00
70370;BME280;57790;51.356;-2.906;2023-03-04T03:04:05;103241.25;;;7.72;100.00
70370;BME280;57790;51.356;-2.906;2023-03-04T03:07:06;103243.03;;;7.71;100.00
70370;BME280;57790;51.356;-2.906;2023-03-04T03:10:07;103246.69;;;7.69;100.00
70370;BME280;57790;51.356;-2.906;2023-03-04T03:13:08;103244.81;;;7.71;100.00
70370;BME280;57790;51.356;-2.906;2023-03-04T03:16:08;103250.28;;;7.68;100.00
70370;BME280;57790;51.356;-2.906;2023-03-04T03:19:09;103247.75;;;7.65;100.00
70370;BME280;57790;51.356;-2.906;2023-03-04T03:22:09;103252.38;;;7.61;100.00
70370;BME280;57790;51.356;-2.906;2023-03-04T03:25:11;103249.72;;;7.61;100.00
70370;BME280;57790;51.356;-2.906;2023-03-04T03:28:12;103260.53;;;7.57;100.00
70370;BME280;57790;51.356;-2.906;2023-03-04T03:31:12;103255.09;;;7.60;100.00
70370;BME280;57790;51.356;-2.906;2023-03-04T03:34:13;103251.34;;;7.64;100.00
70370;BME280;57790;51.356;-2.906;2023-03-04T03:37:14;103260.28;;;7.61;100.00
70370;BME280;57790;51.356;-2.906;2023-03-04T03:40:14;103253.22;;;7.62;100.00
70370;BME280;57790;51.356;-2.906;2023-03-04T03:43:15;103262.06;;;7.61;100.00
70370;BME280;57790;51.356;-2.906;2023-03-04T03:46:15;103250.50;;;7.63;100.00
70370;BME280;57790;51.356;-2.906;2023-03-04T03:49:15;103253.91;;;7.65;100.00
70370;BME280;57790;51.356;-2.906;2023-03-04T03:52:16;103246.06;;;7.64;100.00
70370;BME280;57790;51.356;-2.906;2023-03-04T03:55:16;103250.41;;;7.65;100.00
70370;BME280;57790;51.356;-2.906;2023-03-04T03:58:17;103253.31;;;7.60;100.00
70370;BME280;57790;51.356;-2.906;2023-03-04T04:01:17;103255.94;;;7.60;100.00
70370;BME280;57790;51.356;-2.906;2023-03-04T04:04:17;103255.69;;;7.65;100.00
70370;BME280;57790;51.356;-2.906;2023-03-04T04:07:18;103266.25;;;7.65;100.00
70370;BME280;57790;51.356;-2.906;2023-03-04T04:10:18;103265.47;;;7.63;100.00
70370;BME280;57790;51.356;-2.906;2023-03-04T04:13:19;103269.91;;;7.62;100.00
70370;BME280;57790;51.356;-2.906;2023-03-04T04:16:20;103264.78;;;7.59;100.00
70370;BME280;57790;51.356;-2.906;2023-03-04T04:19:20;103271.94;;;7.57;100.00
70370;BME280;57790;51.356;-2.906;2023-03-04T04:22:20;103270.84;;;7.61;100.00
70370;BME280;57790;51.356;-2.906;2023-03-04T04:25:21;103271.44;;;7.66;100.00
70370;BME280;57790;51.356;-2.906;2023-03-04T04:28:22;103273.47;;;7.61;100.00
70370;BME280;57790;51.356;-2.906;2023-03-04T04:31:23;103276.22;;;7.60;100.00
70370;BME280;57790;51.356;-2.906;2023-03-04T04:34:24;103271.78;;;7.60;100.00
70370;BME280;57790;51.356;-2.906;2023-03-04T04:37:24;103268.19;;;7.61;100.00
70370;BME280;57790;51.356;-2.906;2023-03-04T04:40:25;103270.16;;;7.58;100.00
70370;BME280;57790;51.356;-2.906;2023-03-04T04:43:25;103271.00;;;7.58;100.00
70370;BME280;57790;51.356;-2.906;2023-03-04T04:46:26;103269.06;;;7.62;100.00
70370;BME280;57790;51.356;-2.906;2023-03-04T04:49:26;103266.41;;;7.62;100.00
70370;BME280;57790;51.356;-2.906;2023-03-04T04:52:27;103275.09;;;7.64;100.00
70370;BME280;57790;51.356;-2.906;2023-03-04T04:55:27;103270.69;;;7.64;100.00
70370;BME280;57790;51.356;-2.906;2023-03-04T04:58:27;103275.94;;;7.64;100.00
70370;BME280;57790;51.356;-2.906;2023-03-04T05:01:28;103271.84;;;7.59;100.00
70370;BME280;57790;51.356;-2.906;2023-03-04T05:04:29;103273.56;;;7.60;100.00
70370;BME280;57790;51.356;-2.906;2023-03-04T05:07:29;103279.09;;;7.55;100.00
70370;BME280;57790;51.356;-2.906;2023-03-04T05:10:29;103272.78;;;7.58;100.00
70370;BME280;57790;51.356;-2.906;2023-03-04T05:13:30;103279.00;;;7.57;100.00
70370;BME280;57790;51.356;-2.906;2023-03-04T05:16:31;103280.63;;;7.59;100.00
70370;BME280;57790;51.356;-2.906;2023-03-04T05:19:32;103284.03;;;7.61;100.00
70370;BME280;57790;51.356;-2.906;2023-03-04T05:22:32;103278.84;;;7.60;100.00
70370;BME280;57790;51.356;-2.906;2023-03-04T05:25:33;103279.69;;;7.60;100.00
70370;BME280;57790;51.356;-2.906;2023-03-04T05:28:34;103284.97;;;7.60;100.00
70370;BME280;57790;51.356;-2.906;2023-03-04T05:31:35;103285.06;;;7.59;100.00
70370;BME280;57790;51.356;-2.906;2023-03-04T05:34:35;103283.19;;;7.61;100.00
70370;BME280;57790;51.356;-2.906;2023-03-04T05:37:35;103284.13;;;7.60;100.00
70370;BME280;57790;51.356;-2.906;2023-03-04T05:40:37;103285.75;;;7.62;100.00
70370;BME280;57790;51.356;-2.906;2023-03-04T05:43:38;103283.97;;;7.63;100.00
70370;BME280;57790;51.356;-2.906;2023-03-04T05:46:41;103281.41;;;7.61;100.00
70370;BME280;57790;51.356;-2.906;2023-03-04T05:49:42;103273.72;;;7.57;100.00
70370;BME280;57790;51.356;-2.906;2023-03-04T05:52:43;103275.44;;;7.58;100.00
70370;BME280;57790;51.356;-2.906;2023-03-04T05:55:47;103271.19;;;7.55;100.00
70370;BME280;57790;51.356;-2.906;2023-03-04T05:58:47;103275.53;;;7.56;100.00
70370;BME280;57790;51.356;-2.906;2023-03-04T06:01:48;103279.88;;;7.57;100.00
70370;BME280;57790;51.356;-2.906;2023-03-04T06:04:48;103288.63;;;7.58;100.00
70370;BME280;57790;51.356;-2.906;2023-03-04T06:07:49;103277.31;;;7.56;100.00
70370;BME280;57790;51.356;-2.906;2023-03-04T06:10:52;103274.66;;;7.56;100.00
70370;BME280;57790;51.356;-2.906;2023-03-04T06:13:52;103274.59;;;7.57;100.00
70370;BME280;57790;51.356;-2.906;2023-03-04T06:16:53;103274.97;;;7.50;100.00
70370;BME280;57790;51.356;-2.906;2023-03-04T06:19:53;103275.81;;;7.50;100.00
70370;BME280;57790;51.356;-2.906;2023-03-04T06:22:54;103276.75;;;7.49;100.00
70370;BME280;57790;51.356;-2.906;2023-03-04T06:25:56;103275.06;;;7.48;100.00
70370;BME280;57790;51.356;-2.906;2023-03-04T06:28:56;103279.47;;;7.47;100.00
70370;BME280;57790;51.356;-2.906;2023-03-04T06:31:57;103290.88;;;7.48;100.00
70370;BME280;57790;51.356;-2.906;2023-03-04T06:34:58;103285.59;;;7.48;100.00
70370;BME280;57790;51.356;-2.906;2023-03-04T06:37:58;103285.84;;;7.43;100.00
70370;BME280;57790;51.356;-2.906;2023-03-04T06:41:06;103288.66;;;7.40;100.00
70370;BME280;57790;51.356;-2.906;2023-03-04T06:44:07;103289.50;;;7.41;100.00
70370;BME280;57790;51.356;-2.906;2023-03-04T06:47:07;103291.06;;;7.45;100.00
70370;BME280;57790;51.356;-2.906;2023-03-04T06:50:09;103289.19;;;7.47;100.00
70370;BME280;57790;51.356;-2.906;2023-03-04T06:53:11;103296.41;;;7.43;100.00
70370;BME280;57790;51.356;-2.906;2023-03-04T06:56:12;103298.38;;;7.40;100.00
70370;BME280;57790;51.356;-2.906;2023-03-04T06:59:15;103302.63;;;7.42;100.00
70370;BME280;57790;51.356;-2.906;2023-03-04T07:02:15;103297.44;;;7.41;100.00
70370;BME280;57790;51.356;-2.906;2023-03-04T07:05:16;103311.63;;;7.38;100.00
70370;BME280;57790;51.356;-2.906;2023-03-04T07:08:16;103314.97;;;7.42;100.00
70370;BME280;57790;51.356;-2.906;2023-03-04T07:11:17;103309.69;;;7.42;100.00
70370;BME280;57790;51.356;-2.906;2023-03-04T07:14:18;103307.91;;;7.42;100.00
70370;BME280;57790;51.356;-2.906;2023-03-04T07:17:18;103316.75;;;7.41;100.00
70370;BME280;57790;51.356;-2.906;2023-03-04T07:20:19;103313.94;;;7.44;100.00
70370;BME280;57790;51.356;-2.906;2023-03-04T07:23:19;103317.44;;;7.45;100.00
70370;BME280;57790;51.356;-2.906;2023-03-04T07:26:19;103321.00;;;7.44;100.00
70370;BME280;57790;51.356;-2.906;2023-03-04T07:29:20;103321.88;;;7.44;100.00
70370;BME280;57790;51.356;-2.906;2023-03-04T07:32:20;103316.75;;;7.41;100.00
70370;BME280;57790;51.356;-2.906;2023-03-04T07:35:21;103316.91;;;7.38;100.00
70370;BME280;57790;51.356;-2.906;2023-03-04T07:38:21;103308.06;;;7.39;100.00
70370;BME280;57790;51.356;-2.906;2023-03-04T07:41:23;103315.91;;;7.41;100.00
70370;BME280;57790;51.356;-2.906;2023-03-04T07:44:24;103321.34;;;7.38;100.00
70370;BME280;57790;51.356;-2.906;2023-03-04T07:47:24;103324.84;;;7.38;100.00
70370;BME280;57790;51.356;-2.906;2023-03-04T07:50:25;103322.97;;;7.40;100.00
70370;BME280;57790;51.356;-2.906;2023-03-04T07:53:25;103337.00;;;7.41;100.00
70370;BME280;57790;51.356;-2.906;2023-03-04T07:56:29;103335.50;;;7.35;100.00
70370;BME280;57790;51.356;-2.906;2023-03-04T07:59:30;103332.75;;;7.38;100.00
70370;BME280;57790;51.356;-2.906;2023-03-04T08:02:30;103331.81;;;7.39;100.00
70370;BME280;57790;51.356;-2.906;2023-03-04T08:05:31;103336.16;;;7.40;100.00
70370;BME280;57790;51.356;-2.906;2023-03-04T08:08:31;103336.69;;;7.30;100.00
70370;BME280;57790;51.356;-2.906;2023-03-04T08:11:34;103335.44;;;7.37;100.00
70370;BME280;57790;51.356;-2.906;2023-03-04T08:14:35;103338.94;;;7.37;100.00
70370;BME280;57790;51.356;-2.906;2023-03-04T08:17:35;103350.97;;;7.43;100.00
70370;BME280;57790;51.356;-2.906;2023-03-04T08:20:40;103346.56;;;7.43;100.00
70370;BME280;57790;51.356;-2.906;2023-03-04T08:23:41;103346.47;;;7.45;100.00
70370;BME280;57790;51.356;-2.906;2023-03-04T08:26:44;103342.44;;;7.38;100.00
70370;BME280;57790;51.356;-2.906;2023-03-04T08:29:45;103354.56;;;7.42;100.00
70370;BME280;57790;51.356;-2.906;2023-03-04T08:32:45;103344.84;;;7.42;100.00
70370;BME280;57790;51.356;-2.906;2023-03-04T08:35:46;103353.28;;;7.49;100.00
70370;BME280;57790;51.356;-2.906;2023-03-04T08:38:46;103351.22;;;7.56;100.00
70370;BME280;57790;51.356;-2.906;2023-03-04T08:41:47;103345.00;;;7.57;100.00
70370;BME280;57790;51.356;-2.906;2023-03-04T08:44:48;103347.63;;;7.57;100.00
70370;BME280;57790;51.356;-2.906;2023-03-04T08:47:50;103350.13;;;7.60;100.00
70370;BME280;57790;51.356;-2.906;2023-03-04T08:50:51;103354.47;;;7.61;100.00
70370;BME280;57790;51.356;-2.906;2023-03-04T08:53:51;103354.47;;;7.61;100.00
70370;BME280;57790;51.356;-2.906;2023-03-04T08:56:52;103361.19;;;7.66;100.00
70370;BME280;57790;51.356;-2.906;2023-03-04T08:59:52;103367.50;;;7.64;100.00
70370;BME280;57790;51.356;-2.906;2023-03-04T09:02:53;103370.69;;;7.70;100.00
70370;BME280;57790;51.356;-2.906;2023-03-04T09:05:55;103379.47;;;7.71;100.00
70370;BME280;57790;51.356;-2.906;2023-03-04T09:08:55;103370.69;;;7.70;100.00
70370;BME280;57790;51.356;-2.906;2023-03-04T09:11:56;103366.47;;;7.66;100.00
70370;BME280;57790;51.356;-2.906;2023-03-04T09:14:56;103367.13;;;7.71;100.00
70370;BME280;57790;51.356;-2.906;2023-03-04T09:17:56;103374.09;;;7.72;100.00
70370;BME280;57790;51.356;-2.906;2023-03-04T09:20:57;103361.91;;;7.70;100.00
70370;BME280;57790;51.356;-2.906;2023-03-04T09:23:57;103363.47;;;7.74;100.00
70370;BME280;57790;51.356;-2.906;2023-03-04T09:26:58;103360.66;;;7.77;100.00
70370;BME280;57790;51.356;-2.906;2023-03-04T09:29:58;103367.03;;;7.73;100.00
70370;BME280;57790;51.356;-2.906;2023-03-04T09:32:59;103362.00;;;7.68;100.00
70370;BME280;57790;51.356;-2.906;2023-03-04T09:35:59;103370.44;;;7.75;100.00
70370;BME280;57790;51.356;-2.906;2023-03-04T09:39:00;103366.50;;;7.84;100.00
70370;BME280;57790;51.356;-2.906;2023-03-04T09:42:03;103366.94;;;7.74;100.00
70370;BME280;57790;51.356;-2.906;2023-03-04T09:45:06;103362.53;;;7.75;100.00
70370;BME280;57790;51.356;-2.906;2023-03-04T09:48:09;103364.16;;;7.78;100.00
70370;BME280;57790;51.356;-2.906;2023-03-04T09:55:30;103371.31;;;7.75;100.00
70370;BME280;57790;51.356;-2.906;2023-03-04T09:58:41;103366.94;;;7.74;100.00
70370;BME280;57790;51.356;-2.906;2023-03-04T10:01:49;103359.59;;;7.81;100.00
70370;BME280;57790;51.356;-2.906;2023-03-04T10:04:54;103366.56;;;7.82;100.00
70370;BME280;57790;51.356;-2.906;2023-03-04T10:07:59;103363.13;;;7.80;100.00
70370;BME280;57790;51.356;-2.906;2023-03-04T10:11:02;103365.47;;;7.86;100.00
70370;BME280;57790;51.356;-2.906;2023-03-04T10:17:25;103361.22;;;7.84;100.00
70370;BME280;57790;51.356;-2.906;2023-03-04T10:20:43;103365.72;;;7.82;100.00
70370;BME280;57790;51.356;-2.906;2023-03-04T10:23:46;103363.09;;;7.82;100.00
70370;BME280;57790;51.356;-2.906;2023-03-04T10:27:03;103360.03;;;7.89;100.00
70370;BME280;57790;51.356;-2.906;2023-03-04T10:30:16;103353.88;;;7.89;100.00
70370;BME280;57790;51.356;-2.906;2023-03-04T10:33:25;103349.28;;;7.92;100.00
70370;BME280;57790;51.356;-2.906;2023-03-04T10:39:45;103359.00;;;7.92;100.00
70370;BME280;57790;51.356;-2.906;2023-03-04T10:42:48;103346.47;;;7.95;100.00
70370;BME280;57790;51.356;-2.906;2023-03-04T10:45:53;103353.50;;;7.96;100.00
70370;BME280;57790;51.356;-2.906;2023-03-04T10:48:54;103349.00;;;7.98;100.00
70370;BME280;57790;51.356;-2.906;2023-03-04T10:52:56;103353.16;;;8.02;100.00
70370;BME280;57790;51.356;-2.906;2023-03-04T10:55:42;103345.06;;;8.05;100.00
70370;BME280;57790;51.356;-2.906;2023-03-04T10:58:43;103349.00;;;7.98;100.00
70370;BME280;57790;51.356;-2.906;2023-03-04T11:01:44;103347.28;;;7.97;100.00
70370;BME280;57790;51.356;-2.906;2023-03-04T11:04:53;103343.72;;;7.98;100.00
70370;BME280;57790;51.356;-2.906;2023-03-04T11:07:58;103350.31;;;7.90;100.00
70370;BME280;57790;51.356;-2.906;2023-03-04T11:10:59;103341.28;;;7.94;100.00
70370;BME280;57790;51.356;-2.906;2023-03-04T11:14:03;103341.06;;;7.98;100.00
70370;BME280;57790;51.356;-2.906;2023-03-04T11:20:27;103336.47;;;8.02;100.00
70370;BME280;57790;51.356;-2.906;2023-03-04T11:24:20;103323.00;;;8.06;100.00
70370;BME280;57790;51.356;-2.906;2023-03-04T11:27:04;103328.91;;;8.12;100.00
70370;BME280;57790;51.356;-2.906;2023-03-04T11:40:12;103312.22;;;8.11;100.00
70370;BME280;57790;51.356;-2.906;2023-03-04T11:43:24;103306.06;;;8.11;100.00
70370;BME280;57790;51.356;-2.906;2023-03-04T11:46:57;103298.06;;;8.12;100.00
70370;BME280;57790;51.356;-2.906;2023-03-04T11:56:42;103299.06;;;8.10;100.00
70370;BME280;57790;51.356;-2.906;2023-03-04T12:10:08;103297.03;;;8.15;100.00
70370;BME280;57790;51.356;-2.906;2023-03-04T12:22:51;103280.34;;;8.30;100.00
70370;BME280;57790;51.356;-2.906;2023-03-04T12:36:26;103271.31;;;8.34;100.00
70370;BME280;57790;51.356;-2.906;2023-03-04T12:46:10;103260.34;;;8.42;100.00
70370;BME280;57790;51.356;-2.906;2023-03-04T12:55:36;103260.06;;;8.46;100.00
70370;BME280;57790;51.356;-2.906;2023-03-04T12:58:37;103249.69;;;8.43;100.00
70370;BME280;57790;51.356;-2.906;2023-03-04T13:01:41;103243.28;;;8.47;100.00
70370;BME280;57790;51.356;-2.906;2023-03-04T13:05:01;103232.53;;;8.50;100.00
70370;BME280;57790;51.356;-2.906;2023-03-04T13:14:29;103218.44;;;8.50;100.00
70370;BME280;57790;51.356;-2.906;2023-03-04T13:27:48;103209.91;;;8.60;100.00
70370;BME280;57790;51.356;-2.906;2023-03-04T13:33:59;103202.91;;;8.59;100.00
70370;BME280;57790;51.356;-2.906;2023-03-04T13:37:00;103202.91;;;8.59;100.00
70370;BME280;57790;51.356;-2.906;2023-03-04T13:43:43;103194.81;;;8.62;100.00
70370;BME280;57790;51.356;-2.906;2023-03-04T13:46:44;103187.53;;;8.66;100.00
70370;BME280;57790;51.356;-2.906;2023-03-04T13:49:44;103184.22;;;8.62;100.00
70370;BME280;57790;51.356;-2.906;2023-03-04T13:52:45;103185.16;;;8.61;100.00
70370;BME280;57790;51.356;-2.906;2023-03-04T13:56:10;103179.78;;;8.63;100.00
70370;BME280;57790;51.356;-2.906;2023-03-04T14:02:21;103171.84;;;8.63;100.00
70370;BME280;57790;51.356;-2.906;2023-03-04T14:05:24;103174.59;;;8.61;100.00
70370;BME280;57790;51.356;-2.906;2023-03-04T14:08:25;103173.47;;;8.65;100.00
70370;BME280;57790;51.356;-2.906;2023-03-04T14:11:33;103170.81;;;8.65;100.00
70370;BME280;57790;51.356;-2.906;2023-03-04T14:14:43;103168.78;;;8.71;100.00
70370;BME280;57790;51.356;-2.906;2023-03-04T14:17:50;103166.28;;;8.68;100.00
70370;BME280;57790;51.356;-2.906;2023-03-04T14:20:52;103174.06;;;8.71;100.00
70370;BME280;57790;51.356;-2.906;2023-03-04T14:24:07;103165.09;;;8.73;100.00
70370;BME280;57790;51.356;-2.906;2023-03-04T14:27:11;103167.94;;;8.70;100.00
70370;BME280;57790;51.356;-2.906;2023-03-04T14:30:21;103159.91;;;8.72;100.00
70370;BME280;57790;51.356;-2.906;2023-03-04T14:33:27;103158.88;;;8.74;100.00
70370;BME280;57790;51.356;-2.906;2023-03-04T14:36:31;103154.53;;;8.73;100.00
70370;BME280;57790;51.356;-2.906;2023-03-04T14:39:32;103153.66;;;8.73;100.00
70370;BME280;57790;51.356;-2.906;2023-03-04T14:42:40;103140.88;;;8.65;100.00
70370;BME280;57790;51.356;-2.906;2023-03-04T14:45:42;103144.97;;;8.71;100.00
70370;BME280;57790;51.356;-2.906;2023-03-04T14:48:50;103130.91;;;8.70;100.00
70370;BME280;57790;51.356;-2.906;2023-03-04T14:51:52;103132.59;;;8.71;100.00
70370;BME280;57790;51.356;-2.906;2023-03-04T14:55:07;103132.31;;;8.76;100.00
70370;BME280;57790;51.356;-2.906;2023-03-04T14:58:20;103124.50;;;8.74;100.00
70370;BME280;57790;51.356;-2.906;2023-03-04T15:01:26;103122.88;;;8.72;100.00
70370;BME280;57790;51.356;-2.906;2023-03-04T15:04:28;103127.13;;;8.74;100.00
70370;BME280;57790;51.356;-2.906;2023-03-04T15:07:33;103123.72;;;8.72;100.00
70370;BME280;57790;51.356;-2.906;2023-03-04T15:10:36;103113.53;;;8.80;100.00
70370;BME280;57790;51.356;-2.906;2023-03-04T15:16:55;103114.75;;;8.75;100.00
70370;BME280;57790;51.356;-2.906;2023-03-04T15:23:08;103116.75;;;8.71;100.00
70370;BME280;57790;51.356;-2.906;2023-03-04T15:26:13;103117.41;;;8.75;100.00
70370;BME280;57790;51.356;-2.906;2023-03-04T15:29:16;103109.56;;;8.73;100.00
70370;BME280;57790;51.356;-2.906;2023-03-04T15:32:17;103111.56;;;8.70;100.00
70370;BME280;57790;51.356;-2.906;2023-03-04T15:35:18;103110.41;;;8.74;100.00
70370;BME280;57790;51.356;-2.906;2023-03-04T15:38:19;103112.88;;;8.77;100.00
70370;BME280;57790;51.356;-2.906;2023-03-04T15:41:24;103109.38;;;8.76;100.00
70370;BME280;57790;51.356;-2.906;2023-03-04T15:44:25;103104.19;;;8.75;100.00
70370;BME280;57790;51.356;-2.906;2023-03-04T15:47:25;103094.34;;;8.77;100.00
70370;BME280;57790;51.356;-2.906;2023-03-04T15:50:27;103095.22;;;8.77;100.00
70370;BME280;57790;51.356;-2.906;2023-03-04T15:53:32;103097.00;;;8.77;100.00
70370;BME280;57790;51.356;-2.906;2023-03-04T15:56:35;103095.31;;;8.76;100.00
70370;BME280;57790;51.356;-2.906;2023-03-04T15:59:35;103086.72;;;8.72;100.00
70370;BME280;57790;51.356;-2.906;2023-03-04T16:02:35;103085.00;;;8.71;100.00
70370;BME280;57790;51.356;-2.906;2023-03-04T16:05:36;103085.66;;;8.75;100.00
70370;BME280;57790;51.356;-2.906;2023-03-04T16:08:38;103076.59;;;8.79;100.00
70370;BME280;57790;51.356;-2.906;2023-03-04T16:11:41;103073.38;;;8.74;100.00
70370;BME280;57790;51.356;-2.906;2023-03-04T16:14:44;103065.25;;;8.77;100.00
70370;BME280;57790;51.356;-2.906;2023-03-04T16:17:46;103068.75;;;8.77;100.00
70370;BME280;57790;51.356;-2.906;2023-03-04T16:20:48;103069.50;;;8.79;100.00
70370;BME280;57790;51.356;-2.906;2023-03-04T16:23:50;103063.84;;;8.71;100.00
70370;BME280;57790;51.356;-2.906;2023-03-04T16:26:51;103061.47;;;8.67;100.00
70370;BME280;57790;51.356;-2.906;2023-03-04T16:29:51;103058.56;;;8.71;100.00
70370;BME280;57790;51.356;-2.906;2023-03-04T16:32:52;103056.69;;;8.73;100.00
70370;BME280;57790;51.356;-2.906;2023-03-04T16:35:53;103051.19;;;8.76;100.00
70370;BME280;57790;51.356;-2.906;2023-03-04T16:38:54;103057.03;;;8.67;100.00
70370;BME280;57790;51.356;-2.906;2023-03-04T16:41:56;103056.78;;;8.72;100.00
70370;BME280;57790;51.356;-2.906;2023-03-04T16:44:56;103052.97;;;8.61;100.00
70370;BME280;57790;51.356;-2.906;2023-03-04T16:47:57;103053.06;;;8.60;100.00
70370;BME280;57790;51.356;-2.906;2023-03-04T16:50:57;103049.78;;;8.56;100.00
70370;BME280;57790;51.356;-2.906;2023-03-04T16:53:58;103055.69;;;8.46;100.00
70370;BME280;57790;51.356;-2.906;2023-03-04T16:57:01;103051.25;;;8.46;100.00
70370;BME280;57790;51.356;-2.906;2023-03-04T17:00:02;103047.38;;;8.52;100.00
70370;BME280;57790;51.356;-2.906;2023-03-04T17:03:05;103049.88;;;8.55;100.00
70370;BME280;57790;51.356;-2.906;2023-03-04T17:06:06;103046.63;;;8.50;100.00
70370;BME280;57790;51.356;-2.906;2023-03-04T17:09:07;103051.16;;;8.48;100.00
70370;BME280;57790;51.356;-2.906;2023-03-04T17:12:09;103041.53;;;8.47;100.00
70370;BME280;57790;51.356;-2.906;2023-03-04T17:15:12;103037.19;;;8.46;100.00
70370;BME280;57790;51.356;-2.906;2023-03-04T17:18:12;103039.34;;;8.39;100.00
70370;BME280;57790;51.356;-2.906;2023-03-04T17:21:15;103041.63;;;8.45;100.00
70370;BME280;57790;51.356;-2.906;2023-03-04T17:24:17;103042.56;;;8.44;100.00
70370;BME280;57790;51.356;-2.906;2023-03-04T17:27:17;103042.06;;;8.38;100.00
70370;BME280;57790;51.356;-2.906;2023-03-04T17:30:17;103037.72;;;8.37;100.00
70370;BME280;57790;51.356;-2.906;2023-03-04T17:33:18;103042.91;;;8.38;100.00